PWSweather.com
Personal Weather Stations
Station Observations
PENICUIKWS
PenicuikGB

PenicuikGB

Lat: 55.830932, Lon: -3.224533000000065

Elevation: 166

Station Type: Fine Offset

http://weather.penicuik.org

High Low Average
Temperature 70.9°F21.6°C 54.5°F12.5°C 61.7°F16.5°C
Dew Point 57.6°F14.2°C 50.2°F10.1°C 54.3°F12.4°C
Winds 6.5 mph 10.5 kmh Calm Calm 2.0 mph S3.2 kmh S
Wind Gusts 14.5 mph23.3 kmh -- 5.0 mph8.0 kmh
Humidity 98% 50% 78%
Pressure 30.06 in1017.9 mb 29.94 in1013.9 mb -
Precipitation 0.05 in1.3 mm - -
Hour Temp Dew Point Humidity Winds Wind Gusts Pressure Precip Precip Rate Daily Precip Total
12:00 AM 58.1°F14.5°C 56.1°F13.4°C 93% 1.9 mph N3.1 kmh N 3.1 mph5.0 kmh 29.94 in1013.9 mb 0.00 in0.0 mm 0.00 in0.0 mm 0.00 in0.0 mm
12:15 AM 57.6°F14.2°C 55.6°F13.1°C 93% 2.1 mph SSW3.4 kmh SSW 3.1 mph5.0 kmh 29.95 in1014.2 mb 0.00 in0.0 mm 0.00 in0.0 mm 0.00 in0.0 mm
12:30 AM 57.4°F14.1°C 55.7°F13.2°C 94% 0.9 mph NNW1.4 kmh NNW 2.2 mph3.5 kmh 29.94 in1013.9 mb 0.00 in0.0 mm 0.00 in0.0 mm 0.00 in0.0 mm
12:45 AM 57.4°F14.1°C 55.7°F13.2°C 94% 1.3 mph NNW2.1 kmh NNW 3.1 mph5.0 kmh 29.94 in1013.9 mb 0.00 in0.0 mm 0.00 in0.0 mm 0.00 in0.0 mm
01:00 AM 57.2°F14.0°C 55.2°F12.9°C 93% 1.9 mph NW3.1 kmh NW 3.8 mph6.1 kmh 29.95 in1014.2 mb 0.00 in0.0 mm 0.00 in0.0 mm 0.00 in0.0 mm
01:15 AM 56.3°F13.5°C 54.6°F12.6°C 94% 0.7 mph N1.1 kmh N 2.2 mph3.5 kmh 29.94 in1013.9 mb 0.00 in0.0 mm 0.00 in0.0 mm 0.00 in0.0 mm
01:30 AM 56.1°F13.4°C 54.4°F12.4°C 94% 1.1 mph N1.8 kmh N 2.2 mph3.5 kmh 29.95 in1014.2 mb 0.00 in0.0 mm 0.00 in0.0 mm 0.00 in0.0 mm
01:45 AM 55.6°F13.1°C 53.9°F12.2°C 94% 0.7 mph NNW1.1 kmh NNW 1.6 mph2.6 kmh 29.94 in1013.9 mb 0.00 in0.0 mm 0.00 in0.0 mm 0.00 in0.0 mm
02:00 AM 55.2°F12.9°C 53.5°F11.9°C 94% 1.2 mph NNE1.9 kmh NNE 2.2 mph3.5 kmh 29.94 in1013.9 mb 0.00 in0.0 mm 0.00 in0.0 mm 0.00 in0.0 mm
02:15 AM 55.2°F12.9°C 53.5°F11.9°C 94% 0.6 mph N1.0 kmh N 2.2 mph3.5 kmh 29.96 in1014.6 mb 0.00 in0.0 mm 0.00 in0.0 mm 0.00 in0.0 mm
02:30 AM 54.7°F12.6°C 53.0°F11.7°C 94% 0.4 mph N0.6 kmh N 1.6 mph2.6 kmh 29.96 in1014.6 mb 0.00 in0.0 mm 0.00 in0.0 mm 0.00 in0.0 mm
02:45 AM 54.5°F12.5°C 53.1°F11.7°C 95% 0.6 mph N1.0 kmh N 1.6 mph2.6 kmh 29.96 in1014.6 mb 0.00 in0.0 mm 0.00 in0.0 mm 0.00 in0.0 mm
03:00 AM 54.7°F12.6°C 53.3°F11.8°C 95% 0.5 mph N0.8 kmh N 1.6 mph2.6 kmh 29.96 in1014.6 mb 0.00 in0.0 mm 0.00 in0.0 mm 0.00 in0.0 mm
03:15 AM 54.7°F12.6°C 53.6°F12.0°C 96% 0.8 mph NNW1.3 kmh NNW 1.6 mph2.6 kmh 29.96 in1014.6 mb 0.00 in0.0 mm 0.00 in0.0 mm 0.00 in0.0 mm
03:30 AM 54.7°F12.6°C 53.6°F12.0°C 96% 0.3 mph N0.5 kmh N 1.6 mph2.6 kmh 29.97 in1014.9 mb 0.00 in0.0 mm 0.00 in0.0 mm 0.00 in0.0 mm
03:45 AM 54.7°F12.6°C 53.9°F12.2°C 97% Calm Calm -- 29.97 in1014.9 mb 0.00 in0.0 mm 0.00 in0.0 mm 0.00 in0.0 mm
04:00 AM 54.5°F12.5°C 53.7°F12.1°C 97% 0.1 mph SW0.2 kmh SW 1.6 mph2.6 kmh 29.98 in1015.2 mb 0.00 in0.0 mm 0.00 in0.0 mm 0.00 in0.0 mm
04:30 AM 54.5°F12.5°C 53.7°F12.1°C 97% 0.5 mph N0.8 kmh N 1.6 mph2.6 kmh 29.98 in1015.2 mb 0.00 in0.0 mm 0.00 in0.0 mm 0.00 in0.0 mm
05:00 AM 54.5°F12.5°C 53.7°F12.1°C 97% 0.2 mph N0.3 kmh N 1.6 mph2.6 kmh 29.99 in1015.6 mb 0.00 in0.0 mm 0.00 in0.0 mm 0.00 in0.0 mm
05:15 AM 55.0°F12.8°C 54.2°F12.3°C 97% Calm Calm -- 30.00 in1015.9 mb 0.00 in0.0 mm 0.00 in0.0 mm 0.00 in0.0 mm
05:30 AM 56.1°F13.4°C 55.6°F13.1°C 98% 0.3 mph S0.5 kmh S 1.6 mph2.6 kmh 30.00 in1015.9 mb 0.00 in0.0 mm 0.00 in0.0 mm 0.00 in0.0 mm
05:45 AM 57.4°F14.1°C 56.5°F13.6°C 97% 0.3 mph S0.5 kmh S 0.7 mph1.1 kmh 29.99 in1015.6 mb 0.00 in0.0 mm 0.00 in0.0 mm 0.00 in0.0 mm
06:15 AM 59.5°F15.3°C 57.5°F14.2°C 93% 0.2 mph NE0.3 kmh NE 1.6 mph2.6 kmh 30.00 in1015.9 mb 0.00 in0.0 mm 0.00 in0.0 mm 0.00 in0.0 mm
06:30 AM 60.1°F15.6°C 57.2°F14.0°C 90% 1.7 mph SW2.7 kmh SW 5.4 mph8.7 kmh 30.01 in1016.3 mb 0.00 in0.0 mm 0.00 in0.0 mm 0.00 in0.0 mm
06:45 AM 61.0°F16.1°C 54.4°F12.4°C 79% 2.6 mph S4.2 kmh S 5.4 mph8.7 kmh 30.01 in1016.3 mb 0.00 in0.0 mm 0.00 in0.0 mm 0.00 in0.0 mm
07:00 AM 61.0°F16.1°C 53.7°F12.1°C 77% 1.2 mph WNW1.9 kmh WNW 3.1 mph5.0 kmh 30.01 in1016.3 mb 0.00 in0.0 mm 0.00 in0.0 mm 0.00 in0.0 mm
07:15 AM 61.7°F16.5°C 54.4°F12.4°C 77% 1.2 mph NNW1.9 kmh NNW 2.2 mph3.5 kmh 30.01 in1016.3 mb 0.00 in0.0 mm 0.00 in0.0 mm 0.00 in0.0 mm
07:30 AM 66.4°F19.1°C 55.5°F13.1°C 68% 3.0 mph SE4.8 kmh SE 3.8 mph6.1 kmh 30.02 in1016.6 mb 0.00 in0.0 mm 0.00 in0.0 mm 0.00 in0.0 mm
07:45 AM 70.7°F21.5°C 55.7°F13.2°C 59% 3.1 mph SSE5.0 kmh SSE 6.0 mph9.7 kmh 30.02 in1016.6 mb 0.00 in0.0 mm 0.00 in0.0 mm 0.00 in0.0 mm
08:00 AM 70.9°F21.6°C 53.9°F12.2°C 55% 3.2 mph NE5.1 kmh NE 4.5 mph7.2 kmh 30.03 in1016.9 mb 0.00 in0.0 mm 0.00 in0.0 mm 0.00 in0.0 mm
08:15 AM 69.4°F20.8°C 51.1°F10.6°C 52% 4.5 mph NNW7.2 kmh NNW 6.9 mph11.1 kmh 30.02 in1016.6 mb 0.00 in0.0 mm 0.00 in0.0 mm 0.00 in0.0 mm
08:30 AM 65.1°F18.4°C 51.8°F11.0°C 62% 2.2 mph NW3.5 kmh NW 6.0 mph9.7 kmh 30.03 in1016.9 mb 0.00 in0.0 mm 0.00 in0.0 mm 0.00 in0.0 mm
09:00 AM 70.7°F21.5°C 51.7°F10.9°C 51% 5.2 mph SSE8.4 kmh SSE 12.1 mph19.5 kmh 30.03 in1016.9 mb 0.00 in0.0 mm 0.00 in0.0 mm 0.00 in0.0 mm
09:15 AM 70.9°F21.6°C 51.3°F10.7°C 50% 4.9 mph SSW7.9 kmh SSW 9.8 mph15.8 kmh 30.03 in1016.9 mb 0.00 in0.0 mm 0.00 in0.0 mm 0.00 in0.0 mm
09:30 AM 66.4°F19.1°C 50.2°F10.1°C 56% 4.5 mph NW7.2 kmh NW 7.6 mph12.2 kmh 30.04 in1017.3 mb 0.00 in0.0 mm 0.00 in0.0 mm 0.00 in0.0 mm
10:00 AM 66.4°F19.1°C 52.5°F11.4°C 61% 4.0 mph NE6.4 kmh NE 5.4 mph8.7 kmh 30.03 in1016.9 mb 0.00 in0.0 mm 0.00 in0.0 mm 0.00 in0.0 mm
10:15 AM 66.0°F18.9°C 53.1°F11.7°C 63% 3.7 mph WSW6.0 kmh WSW 5.4 mph8.7 kmh 30.04 in1017.3 mb 0.00 in0.0 mm 0.00 in0.0 mm 0.00 in0.0 mm
10:30 AM 67.1°F19.5°C 53.7°F12.1°C 62% 3.9 mph SE6.3 kmh SE 6.9 mph11.1 kmh 30.04 in1017.3 mb 0.00 in0.0 mm 0.00 in0.0 mm 0.00 in0.0 mm
10:45 AM 68.9°F20.5°C 54.5°F12.5°C 60% 3.0 mph NNE4.8 kmh NNE 6.9 mph11.1 kmh 30.04 in1017.3 mb 0.00 in0.0 mm 0.00 in0.0 mm 0.00 in0.0 mm
11:00 AM 67.5°F19.7°C 53.6°F12.0°C 61% 3.7 mph SSE6.0 kmh SSE 5.4 mph8.7 kmh 30.04 in1017.3 mb 0.00 in0.0 mm 0.00 in0.0 mm 0.00 in0.0 mm
11:15 AM 66.2°F19.0°C 53.3°F11.8°C 63% 6.5 mph SE10.5 kmh SE 14.5 mph23.3 kmh 30.05 in1017.6 mb 0.00 in0.0 mm 0.00 in0.0 mm 0.00 in0.0 mm
11:30 AM 67.1°F19.5°C 53.7°F12.1°C 62% 4.8 mph SE7.7 kmh SE 9.8 mph15.8 kmh 30.05 in1017.6 mb 0.00 in0.0 mm 0.00 in0.0 mm 0.00 in0.0 mm
11:45 AM 66.4°F19.1°C 53.4°F11.9°C 63% 3.9 mph NNE6.3 kmh NNE 6.0 mph9.7 kmh 30.04 in1017.3 mb 0.00 in0.0 mm 0.00 in0.0 mm 0.00 in0.0 mm
12:00 PM 67.3°F19.6°C 53.8°F12.1°C 62% 3.8 mph NW6.1 kmh NW 7.6 mph12.2 kmh 30.05 in1017.6 mb 0.00 in0.0 mm 0.00 in0.0 mm 0.00 in0.0 mm
12:15 PM 66.0°F18.9°C 54.8°F12.7°C 67% 3.8 mph N6.1 kmh N 6.9 mph11.1 kmh 30.06 in1017.9 mb 0.00 in0.0 mm 0.00 in0.0 mm 0.00 in0.0 mm
12:30 PM 66.0°F18.9°C 55.2°F12.9°C 68% 3.4 mph NNE5.5 kmh NNE 6.0 mph9.7 kmh 30.05 in1017.6 mb 0.00 in0.0 mm 0.00 in0.0 mm 0.00 in0.0 mm
12:45 PM 66.9°F19.4°C 54.8°F12.7°C 65% 4.1 mph SE6.6 kmh SE 6.0 mph9.7 kmh 30.05 in1017.6 mb 0.00 in0.0 mm 0.00 in0.0 mm 0.00 in0.0 mm
01:00 PM 66.9°F19.4°C 54.4°F12.4°C 64% 4.1 mph NE6.6 kmh NE 6.9 mph11.1 kmh 30.04 in1017.3 mb 0.00 in0.0 mm 0.00 in0.0 mm 0.00 in0.0 mm
01:15 PM 65.7°F18.7°C 54.0°F12.2°C 66% 5.6 mph NW9.0 kmh NW 10.7 mph17.2 kmh 30.04 in1017.3 mb 0.00 in0.0 mm 0.00 in0.0 mm 0.00 in0.0 mm
01:30 PM 65.3°F18.5°C 54.5°F12.5°C 68% 5.3 mph WNW8.5 kmh WNW 8.3 mph13.4 kmh 30.05 in1017.6 mb 0.00 in0.0 mm 0.00 in0.0 mm 0.00 in0.0 mm
01:45 PM 65.3°F18.5°C 54.1°F12.3°C 67% 4.2 mph SE6.8 kmh SE 7.6 mph12.2 kmh 30.04 in1017.3 mb 0.00 in0.0 mm 0.00 in0.0 mm 0.00 in0.0 mm
02:00 PM 65.1°F18.4°C 54.7°F12.6°C 69% 4.4 mph WSW7.1 kmh WSW 11.4 mph18.3 kmh 30.04 in1017.3 mb 0.00 in0.0 mm 0.00 in0.0 mm 0.00 in0.0 mm
02:45 PM 64.4°F18.0°C 55.6°F13.1°C 73% 3.0 mph W4.8 kmh W 8.3 mph13.4 kmh 30.04 in1017.3 mb 0.00 in0.0 mm 0.00 in0.0 mm 0.00 in0.0 mm
03:00 PM 62.8°F17.1°C 55.5°F13.1°C 77% 3.2 mph N5.1 kmh N 6.9 mph11.1 kmh 30.04 in1017.3 mb 0.01 in0.3 mm 0.01 in0.3 mm 0.01 in0.3 mm
03:15 PM 61.0°F16.1°C 56.5°F13.6°C 85% 2.3 mph NW3.7 kmh NW 3.8 mph6.1 kmh 30.04 in1017.3 mb 0.02 in0.5 mm 0.04 in1.0 mm 0.02 in0.5 mm
03:30 PM 60.4°F15.8°C 57.5°F14.2°C 90% 1.6 mph N2.6 kmh N 2.2 mph3.5 kmh 30.04 in1017.3 mb 0.05 in1.3 mm 0.12 in3.0 mm 0.05 in1.3 mm
03:45 PM 60.3°F15.7°C 57.6°F14.2°C 91% 2.7 mph N4.3 kmh N 5.4 mph8.7 kmh 30.04 in1017.3 mb 0.05 in1.3 mm 0.00 in0.0 mm 0.05 in1.3 mm
03:57 PM 60.1°F15.6°C 57.7°F14.3°C 92% 1.8 mph N2.9 kmh N 2.0 mph3.2 kmh 30.04 in1017.3 mb 0.04 in1.0 mm 0.00 in0.0 mm 0.05 in1.3 mm
04:27 PM 60.1°F15.6°C 57.7°F14.3°C 92% 2.2 mph N3.5 kmh N 2.2 mph3.5 kmh 30.03 in1016.9 mb 0.02 in0.5 mm 0.00 in0.0 mm 0.07 in1.8 mm
04:57 PM 59.7°F15.4°C 58.0°F14.4°C 94% 1.6 mph N2.6 kmh N 1.6 mph2.6 kmh 30.04 in1017.3 mb 0.05 in1.3 mm 0.06 in1.5 mm 0.12 in3.0 mm
05:27 PM 59.9°F15.5°C 58.2°F14.6°C 94% 1.6 mph NE2.6 kmh NE 1.6 mph2.6 kmh 30.02 in1016.6 mb 0.01 in0.3 mm 0.00 in0.0 mm 0.13 in3.3 mm
05:57 PM 59.5°F15.3°C 57.8°F14.3°C 94% 1.6 mph N2.6 kmh N 1.6 mph2.6 kmh 30.03 in1016.9 mb 0.01 in0.3 mm 0.00 in0.0 mm 0.14 in3.6 mm
06:27 PM 58.3°F14.6°C 56.9°F13.8°C 95% 1.6 mph E2.6 kmh E 1.6 mph2.6 kmh 30.03 in1016.9 mb 0.02 in0.5 mm 0.02 in0.5 mm 0.17 in4.3 mm
06:57 PM 57.9°F14.4°C 56.8°F13.8°C 96% 3.1 mph N5.0 kmh N 3.1 mph5.0 kmh 30.03 in1016.9 mb 0.01 in0.3 mm 0.00 in0.0 mm 0.18 in4.6 mm
07:27 PM 57.7°F14.3°C 56.6°F13.7°C 96% 1.6 mph N2.6 kmh N 1.6 mph2.6 kmh 30.02 in1016.6 mb 0.02 in0.5 mm 0.02 in0.5 mm 0.20 in5.1 mm
07:57 PM 57.9°F14.4°C 57.1°F13.9°C 97% 0.7 mph NE1.1 kmh NE 0.7 mph1.1 kmh 30.02 in1016.6 mb 0.04 in1.0 mm 0.04 in1.0 mm 0.24 in6.1 mm
08:27 PM 57.7°F14.3°C 56.9°F13.8°C 97% 0.7 mph W1.1 kmh W 0.7 mph1.1 kmh 30.02 in1016.6 mb 0.00 in0.0 mm 0.00 in0.0 mm 0.24 in6.1 mm
08:57 PM 57.9°F14.4°C 57.4°F14.1°C 98% 2.2 mph NE3.5 kmh NE 2.2 mph3.5 kmh 30.02 in1016.6 mb 0.00 in0.0 mm 0.00 in0.0 mm 0.24 in6.1 mm
09:27 PM 58.3°F14.6°C 57.7°F14.3°C 98% 3.8 mph W6.1 kmh W 3.8 mph6.1 kmh 30.01 in1016.3 mb 0.00 in0.0 mm 0.00 in0.0 mm 0.24 in6.1 mm
09:57 PM 57.9°F14.4°C 57.1°F13.9°C 97% 0.7 mph N1.1 kmh N 0.7 mph1.1 kmh 30.02 in1016.6 mb 0.01 in0.3 mm 0.02 in0.5 mm 0.25 in6.4 mm
10:27 PM 57.9°F14.4°C 57.1°F13.9°C 97% 2.2 mph N3.5 kmh N 2.2 mph3.5 kmh 30.02 in1016.6 mb 0.01 in0.3 mm 0.00 in0.0 mm 0.26 in6.6 mm
10:57 PM 57.9°F14.4°C 57.4°F14.1°C 98% 0.7 mph NW1.1 kmh NW 0.7 mph1.1 kmh 30.02 in1016.6 mb 0.01 in0.3 mm 0.00 in0.0 mm 0.27 in6.9 mm
11:27 PM 58.3°F14.6°C 57.7°F14.3°C 98% 2.2 mph S3.5 kmh S 2.2 mph3.5 kmh 30.01 in1016.3 mb 0.01 in0.3 mm 0.00 in0.0 mm 0.01 in0.3 mm
11:57 PM 58.8°F14.9°C 58.3°F14.6°C 98% 2.2 mph NE3.5 kmh NE 2.2 mph3.5 kmh 30.01 in1016.3 mb 0.00 in0.0 mm 0.00 in0.0 mm 0.01 in0.3 mm